createdAt,value
2018-04-14T00:00:38.436Z,7.03
2018-04-14T00:03:41.695Z,7.02
2018-04-14T00:06:45.198Z,6.92
2018-04-14T00:09:48.494Z,6.57
2018-04-14T00:12:51.741Z,6.02
2018-04-14T00:15:55.005Z,6.03
2018-04-14T00:18:59.080Z,6.15
2018-04-14T00:22:02.324Z,6.24
2018-04-14T00:25:06.354Z,6.33
2018-04-14T00:28:09.610Z,6.48
2018-04-14T00:31:12.874Z,6.54
2018-04-14T00:34:16.147Z,6.60
2018-04-14T00:37:19.419Z,6.57
2018-04-14T00:40:23.458Z,6.55
2018-04-14T00:43:26.710Z,6.53
2018-04-14T00:46:29.962Z,6.42
2018-04-14T00:49:33.221Z,6.36
2018-04-14T00:52:37.261Z,6.29
2018-04-14T00:55:40.518Z,6.25
2018-04-14T00:58:43.771Z,6.27
2018-04-14T01:01:47.050Z,6.44
2018-04-14T01:04:50.528Z,6.38
2018-04-14T01:07:54.551Z,6.34
2018-04-14T01:10:58.568Z,6.33
2018-04-14T01:14:01.969Z,6.20
2018-04-14T01:17:05.215Z,6.21
2018-04-14T01:20:08.544Z,6.21
2018-04-14T01:23:12.568Z,6.21
2018-04-14T01:26:16.598Z,6.23
2018-04-14T01:29:19.864Z,6.26
2018-04-14T01:32:23.144Z,6.23
2018-04-14T01:35:26.386Z,6.24
2018-04-14T01:38:31.131Z,6.21
2018-04-14T01:41:34.373Z,6.18
2018-04-14T01:44:37.631Z,6.08
2018-04-14T01:47:40.884Z,6.07
2018-04-14T01:50:44.134Z,6.03
2018-04-14T01:53:47.402Z,5.97
2018-04-14T01:56:50.650Z,5.96
2018-04-14T01:59:53.914Z,5.94
2018-04-14T02:02:57.303Z,5.79
2018-04-14T02:06:00.549Z,5.79
2018-04-14T02:09:03.807Z,5.80
2018-04-14T02:12:07.077Z,5.82
2018-04-14T02:15:11.103Z,5.82
2018-04-14T02:18:15.113Z,5.89
2018-04-14T02:21:18.393Z,5.83
2018-04-14T02:24:22.507Z,5.86
2018-04-14T02:27:26.436Z,5.86
2018-04-14T02:30:30.459Z,5.89
2018-04-14T02:33:33.823Z,5.89
2018-04-14T02:36:37.082Z,5.75
2018-04-14T02:39:40.351Z,5.79
2018-04-14T02:42:43.599Z,5.81
2018-04-14T02:45:46.867Z,5.79
2018-04-14T02:48:50.137Z,5.73
2018-04-14T02:51:53.426Z,5.76
2018-04-14T02:54:57.457Z,5.82
2018-04-14T02:58:00.704Z,5.86
2018-04-14T03:01:04.085Z,5.86
2018-04-14T03:04:07.341Z,5.82
2018-04-14T03:07:12.318Z,5.80
2018-04-14T03:10:15.610Z,5.76
2018-04-14T03:13:19.595Z,5.74
2018-04-14T03:16:22.898Z,5.77
2018-04-14T03:19:26.419Z,5.77
2018-04-14T03:22:29.684Z,5.79
2018-04-14T03:25:33.709Z,5.77
2018-04-14T03:28:37.832Z,5.67
2018-04-14T03:31:41.075Z,5.62
2018-04-14T03:34:45.863Z,5.60
2018-04-14T03:37:49.113Z,5.56
2018-04-14T03:40:52.373Z,5.51
2018-04-14T03:43:55.624Z,5.41
2018-04-14T03:46:59.639Z,5.32
2018-04-14T03:50:03.877Z,5.30
2018-04-14T03:53:07.119Z,5.37
2018-04-14T03:56:10.373Z,5.34
2018-04-14T03:59:13.647Z,5.38
2018-04-14T04:02:17.667Z,5.38
2018-04-14T04:05:21.677Z,5.39
2018-04-14T04:08:25.689Z,5.38
2018-04-14T04:11:29.706Z,5.37
2018-04-14T04:14:33.727Z,5.41
2018-04-14T04:17:37.776Z,5.33
2018-04-14T04:20:58.830Z,5.29
2018-04-14T04:24:19.841Z,5.30
2018-04-14T04:27:23.109Z,5.31
2018-04-14T04:30:27.185Z,5.31
2018-04-14T04:33:31.194Z,5.23
2018-04-14T04:36:35.220Z,5.24
2018-04-14T04:39:39.248Z,5.12
2018-04-14T04:42:42.523Z,5.06
2018-04-14T04:45:46.554Z,5.12
2018-04-14T04:48:49.900Z,5.28
2018-04-14T04:51:53.746Z,5.37
2018-04-14T04:54:57.862Z,5.34
2018-04-14T04:58:01.880Z,5.26
2018-04-14T05:01:05.894Z,5.29
2018-04-14T05:04:10.041Z,5.36
2018-04-14T05:07:13.307Z,5.58
2018-04-14T05:10:17.570Z,5.75
2018-04-14T05:13:20.851Z,6.20
2018-04-14T05:16:25.129Z,6.54
2018-04-14T05:19:30.126Z,6.73
2018-04-14T05:22:33.509Z,6.62
2018-04-14T05:25:36.784Z,6.76
2018-04-14T05:28:40.914Z,6.94
2018-04-14T05:31:44.929Z,6.90
2018-04-14T05:34:48.372Z,7.23
2018-04-14T05:37:51.622Z,7.64
2018-04-14T05:40:55.744Z,7.61
2018-04-14T05:43:59.123Z,7.83
2018-04-14T05:47:03.360Z,7.86
2018-04-14T05:50:06.676Z,8.54
2018-04-14T05:53:09.987Z,9.09
2018-04-14T05:56:13.367Z,9.00
2018-04-14T05:59:16.649Z,9.18
2018-04-14T06:02:19.939Z,9.92
2018-04-14T06:05:23.260Z,10.79
2018-04-14T06:08:26.654Z,11.46
2018-04-14T06:11:29.969Z,12.02
2018-04-14T06:14:33.346Z,13.20
2018-04-14T06:17:36.796Z,14.03
2018-04-14T06:20:40.189Z,13.84
2018-04-14T06:23:43.581Z,13.80
2018-04-14T06:26:47.087Z,13.44
2018-04-14T06:29:50.585Z,13.05
2018-04-14T06:32:54.030Z,13.48
2018-04-14T06:35:57.418Z,13.33
2018-04-14T06:39:01.126Z,13.00
2018-04-14T06:42:04.454Z,12.92
2018-04-14T06:45:08.609Z,13.02
2018-04-14T06:48:11.983Z,13.31
2018-04-14T06:51:15.286Z,13.34
2018-04-14T06:54:18.590Z,13.86
2018-04-14T06:57:21.859Z,14.04
2018-04-14T07:00:25.906Z,13.83
2018-04-14T07:03:29.173Z,14.04
2018-04-14T07:06:33.298Z,14.24
2018-04-14T07:09:36.594Z,14.32
2018-04-14T07:12:39.870Z,14.52
2018-04-14T07:15:43.135Z,14.83
2018-04-14T07:18:46.399Z,14.72
2018-04-14T07:21:49.681Z,14.66
2018-04-14T07:24:52.961Z,14.73
2018-04-14T07:27:57.108Z,14.61
2018-04-14T07:31:00.410Z,14.65
2018-04-14T07:34:03.689Z,14.84
2018-04-14T07:37:07.709Z,14.55
2018-04-14T07:40:10.957Z,14.17
2018-04-14T07:43:14.209Z,14.78
2018-04-14T07:46:17.469Z,14.89
2018-04-14T07:49:20.785Z,14.52
2018-04-14T07:52:25.584Z,14.94
2018-04-14T07:55:28.865Z,14.81
2018-04-14T07:58:32.275Z,15.34
2018-04-14T08:01:35.629Z,15.05
2018-04-14T08:04:38.987Z,15.53
2018-04-14T08:07:42.343Z,15.60
2018-04-14T08:10:45.882Z,15.02
2018-04-14T08:13:49.941Z,14.87
2018-04-14T08:16:53.999Z,14.91
2018-04-14T08:19:57.275Z,14.65
2018-04-14T08:23:01.297Z,15.10
2018-04-14T08:26:04.654Z,15.47
2018-04-14T08:29:07.914Z,15.26
2018-04-14T08:32:11.955Z,15.05
2018-04-14T08:35:15.220Z,15.63
2018-04-14T08:38:18.581Z,14.64
2018-04-14T08:41:21.878Z,15.05
2018-04-14T08:44:25.133Z,15.31
2018-04-14T08:47:28.475Z,14.82
2018-04-14T08:50:31.780Z,14.91
2018-04-14T08:53:35.086Z,14.89
2018-04-14T08:56:38.343Z,14.66
2018-04-14T08:59:41.611Z,14.47
2018-04-14T09:02:45.470Z,15.24
2018-04-14T09:05:50.942Z,14.86
2018-04-14T09:09:18.491Z,15.71
2018-04-14T09:12:22.729Z,15.58
2018-04-14T09:15:26.047Z,15.35
2018-04-14T09:18:29.401Z,16.11
2018-04-14T09:21:33.429Z,16.53
2018-04-14T09:24:37.461Z,15.99
2018-04-14T09:27:40.736Z,16.49
2018-04-14T09:30:44.854Z,16.39
2018-04-14T09:33:48.909Z,16.71
2018-04-14T09:36:52.194Z,16.69
2018-04-14T09:39:55.506Z,17.20
2018-04-14T09:42:58.874Z,17.37
2018-04-14T09:46:02.114Z,16.89
2018-04-14T09:49:05.472Z,16.93
2018-04-14T09:52:08.909Z,16.99
2018-04-14T09:55:12.176Z,17.15
2018-04-14T09:58:15.451Z,17.15
2018-04-14T10:01:27.049Z,17.34
2018-04-14T10:04:31.484Z,17.65
2018-04-14T10:07:35.757Z,17.58
2018-04-14T10:10:39.236Z,18.03
2018-04-14T10:13:42.551Z,18.09
2018-04-14T10:16:45.911Z,17.77
2018-04-14T10:19:49.270Z,17.95
2018-04-14T10:22:52.713Z,18.18
2018-04-14T10:25:56.751Z,17.89
2018-04-14T10:29:00.030Z,18.14
2018-04-14T10:32:03.318Z,18.02
2018-04-14T10:35:06.743Z,18.15
2018-04-14T10:38:10.042Z,17.81
2018-04-14T10:41:13.353Z,17.73
2018-04-14T10:44:16.827Z,17.91
2018-04-14T10:47:20.094Z,17.88
2018-04-14T10:50:23.527Z,17.98
2018-04-14T10:53:26.805Z,17.82
2018-04-14T10:56:30.874Z,17.55
2018-04-14T10:59:34.973Z,17.66
2018-04-14T11:02:38.237Z,17.36
2018-04-14T11:05:42.269Z,17.45
2018-04-14T11:08:45.569Z,17.56
2018-04-14T11:11:48.818Z,17.65
2018-04-14T11:14:52.264Z,17.55
2018-04-14T11:17:56.376Z,17.44
2018-04-14T11:21:00.415Z,17.48
2018-04-14T11:24:03.680Z,17.78
2018-04-14T11:27:07.701Z,17.69
2018-04-14T11:30:12.134Z,17.64
2018-04-14T11:33:15.413Z,17.74
2018-04-14T11:36:19.546Z,17.72
2018-04-14T11:39:23.697Z,17.86
2018-04-14T11:42:26.959Z,17.94
2018-04-14T11:45:31.066Z,17.91
2018-04-14T11:48:34.369Z,17.89
2018-04-14T11:51:38.491Z,17.88
2018-04-14T11:54:42.624Z,18.11
2018-04-14T11:57:45.898Z,18.35
2018-04-14T12:00:50.014Z,18.13
2018-04-14T12:03:54.170Z,17.98
2018-04-14T12:06:57.658Z,18.16
2018-04-14T12:10:00.941Z,17.93
2018-04-14T12:13:05.091Z,17.92
2018-04-14T12:16:08.429Z,18.16
2018-04-14T12:19:11.788Z,18.22
2018-04-14T12:22:15.207Z,18.22
2018-04-14T12:25:18.494Z,18.16
2018-04-14T12:28:21.886Z,17.99
2018-04-14T12:31:25.193Z,17.95
2018-04-14T12:34:28.482Z,18.26
2018-04-14T12:37:31.769Z,18.50
2018-04-14T12:40:35.707Z,18.40
2018-04-14T12:43:39.080Z,18.39
2018-04-14T12:46:42.482Z,18.40
2018-04-14T12:49:48.566Z,18.53
2018-04-14T12:52:51.855Z,18.48
2018-04-14T12:55:55.142Z,18.45
2018-04-14T12:58:58.524Z,18.41
2018-04-14T13:02:02.663Z,18.37
2018-04-14T13:05:09.685Z,18.56
2018-04-14T13:08:12.947Z,18.61
2018-04-14T13:11:16.254Z,18.42
2018-04-14T13:14:19.541Z,18.67
2018-04-14T13:17:22.975Z,18.72
2018-04-14T13:20:28.185Z,18.73
2018-04-14T13:23:34.660Z,18.52
2018-04-14T13:26:38.891Z,18.58
2018-04-14T13:29:42.256Z,18.64
2018-04-14T13:32:47.220Z,18.57
2018-04-14T13:35:50.517Z,18.65
2018-04-14T13:38:53.825Z,18.67
2018-04-14T13:41:58.026Z,18.69
2018-04-14T13:45:01.324Z,18.63
2018-04-14T13:48:04.624Z,18.65
2018-04-14T13:51:07.916Z,18.63
2018-04-14T13:54:11.173Z,18.73
2018-04-14T13:57:14.464Z,18.59
2018-04-14T14:00:17.749Z,18.71
2018-04-14T14:03:21.015Z,18.71
2018-04-14T14:06:24.333Z,18.89
2018-04-14T14:09:28.529Z,18.95
2018-04-14T14:12:31.820Z,19.03
2018-04-14T14:15:36.059Z,18.97
2018-04-14T14:18:39.355Z,19.05
2018-04-14T14:21:42.636Z,19.15
2018-04-14T14:24:45.950Z,18.98
2018-04-14T14:27:49.255Z,18.91
2018-04-14T14:30:52.529Z,18.89
2018-04-14T14:33:55.826Z,19.00
2018-04-14T14:36:59.855Z,19.01
2018-04-14T14:40:03.169Z,19.19
2018-04-14T14:43:06.474Z,19.13
2018-04-14T14:46:10.487Z,19.00
2018-04-14T14:49:13.755Z,18.92
2018-04-14T14:52:17.052Z,18.90
2018-04-14T14:55:20.363Z,18.99
2018-04-14T14:58:23.816Z,18.98
2018-04-14T15:01:27.083Z,18.91
2018-04-14T15:04:30.449Z,18.89
2018-04-14T15:07:34.673Z,18.85
2018-04-14T15:10:37.964Z,18.69
2018-04-14T15:13:41.261Z,18.84
2018-04-14T15:16:45.631Z,18.94
2018-04-14T15:19:49.933Z,18.81
2018-04-14T15:22:54.197Z,18.78
2018-04-14T15:29:32.562Z,18.94
2018-04-14T15:32:36.783Z,18.90
2018-04-14T15:35:40.087Z,18.92
2018-04-14T15:38:43.404Z,18.88
2018-04-14T15:41:47.503Z,18.85
2018-04-14T15:44:50.798Z,18.91
2018-04-14T15:47:54.113Z,19.02
2018-04-14T15:50:57.453Z,19.00
2018-04-14T15:54:00.721Z,18.87
2018-04-14T15:57:04.470Z,18.81
2018-04-14T16:00:08.891Z,18.72
2018-04-14T16:03:13.149Z,18.75
2018-04-14T16:06:16.443Z,18.74
2018-04-14T16:09:30.358Z,18.61
2018-04-14T16:12:46.305Z,18.58
2018-04-14T16:15:49.579Z,18.58
2018-04-14T16:18:52.879Z,18.41
2018-04-14T16:21:56.262Z,18.36
2018-04-14T16:25:00.298Z,18.38
2018-04-14T16:28:04.579Z,18.37
2018-04-14T16:31:07.927Z,18.37
2018-04-14T16:34:11.225Z,18.38
2018-04-14T16:37:14.546Z,18.45
2018-04-14T16:40:17.966Z,18.30
2018-04-14T16:43:21.221Z,18.24
2018-04-14T16:46:24.574Z,18.12
2018-04-14T16:49:29.058Z,17.93
2018-04-14T16:52:32.331Z,17.72
2018-04-14T16:55:36.363Z,17.65
2018-04-14T16:58:39.672Z,17.58
2018-04-14T17:01:42.990Z,17.52
2018-04-14T17:04:46.254Z,17.40
2018-04-14T17:07:49.866Z,17.29
2018-04-14T17:10:53.149Z,17.18
2018-04-14T17:13:56.977Z,17.06
2018-04-14T17:17:00.277Z,16.95
2018-04-14T17:20:04.828Z,16.84
2018-04-14T17:23:08.182Z,16.72
2018-04-14T17:26:11.503Z,16.58
2018-04-14T17:29:14.946Z,16.52
2018-04-14T17:32:18.274Z,16.38
2018-04-14T17:35:22.303Z,16.29
2018-04-14T17:38:25.590Z,16.19
2018-04-14T17:41:28.923Z,16.05
2018-04-14T17:44:32.190Z,15.94
2018-04-14T17:47:36.211Z,15.80
2018-04-14T17:50:39.526Z,15.66
2018-04-14T17:53:42.793Z,15.56
2018-04-14T17:56:46.851Z,15.42
2018-04-14T17:59:50.106Z,15.33
2018-04-14T18:02:54.228Z,15.24
2018-04-14T18:05:58.259Z,15.17
2018-04-14T18:09:01.801Z,15.10
2018-04-14T18:12:05.158Z,14.99
2018-04-14T18:15:08.438Z,14.93
2018-04-14T18:18:12.658Z,14.81
2018-04-14T18:21:17.044Z,14.73
2018-04-14T18:24:20.390Z,14.63
2018-04-14T18:27:24.507Z,14.53
2018-04-14T18:30:27.878Z,14.44
2018-04-14T18:33:31.199Z,14.32
2018-04-14T18:36:35.349Z,14.32
2018-04-14T18:39:38.642Z,14.29
2018-04-14T18:42:41.918Z,14.19
2018-04-14T18:45:46.044Z,14.13
2018-04-14T18:48:49.331Z,14.03
2018-04-14T18:51:53.456Z,13.96
2018-04-14T18:54:57.227Z,13.86
2018-04-14T18:58:00.655Z,13.76
2018-04-14T19:01:04.809Z,13.67
2018-04-14T19:04:08.130Z,13.63
2018-04-14T19:07:11.474Z,13.56
2018-04-14T19:10:15.565Z,13.51
2018-04-14T19:13:19.655Z,13.42
2018-04-14T19:16:22.922Z,13.33
2018-04-14T19:19:26.507Z,13.13
2018-04-14T19:22:29.901Z,12.96
2018-04-14T19:25:33.926Z,12.86
2018-04-14T19:28:37.999Z,12.85
2018-04-14T19:31:41.333Z,12.81
2018-04-14T19:34:45.359Z,12.79
2018-04-14T19:37:49.475Z,12.76
2018-04-14T19:40:52.661Z,12.68
2018-04-14T19:43:56.685Z,12.58
2018-04-14T19:47:00.807Z,12.49
2018-04-14T19:50:05.374Z,12.33
2018-04-14T19:53:08.655Z,12.05
2018-04-14T19:56:11.932Z,11.83
2018-04-14T19:59:15.210Z,11.77
2018-04-14T20:02:19.245Z,11.81
2018-04-14T20:05:22.518Z,11.76
2018-04-14T20:08:25.841Z,11.70
2018-04-14T20:11:29.134Z,11.51
2018-04-14T20:14:33.369Z,11.27
2018-04-14T20:17:36.638Z,11.00
2018-04-14T20:20:40.685Z,10.92
2018-04-14T20:23:44.052Z,10.89
2018-04-14T20:26:48.091Z,11.00
2018-04-14T20:29:51.367Z,11.09
2018-04-14T20:32:54.677Z,11.12
2018-04-14T20:35:58.709Z,11.11
2018-04-14T20:39:02.017Z,11.10
2018-04-14T20:42:05.287Z,11.01
2018-04-14T20:45:09.323Z,10.94
2018-04-14T20:48:12.599Z,10.94
2018-04-14T20:51:16.617Z,10.96
2018-04-14T20:54:20.636Z,10.94
2018-04-14T20:57:23.938Z,10.92
2018-04-14T21:00:27.230Z,10.85
2018-04-14T21:03:31.286Z,10.81
2018-04-14T21:06:34.840Z,10.79
2018-04-14T21:09:38.874Z,10.68
2018-04-14T21:12:42.536Z,10.62
2018-04-14T21:15:48.471Z,10.55
2018-04-14T21:18:51.727Z,10.45
2018-04-14T21:21:55.014Z,10.43
2018-04-14T21:24:58.307Z,10.44
2018-04-14T21:28:01.762Z,10.36
2018-04-14T21:31:05.052Z,10.32
2018-04-14T21:34:08.685Z,10.25
2018-04-14T21:37:12.108Z,10.19
2018-04-14T21:40:15.390Z,10.04
2018-04-14T21:43:18.645Z,9.82
2018-04-14T21:46:22.683Z,9.21
2018-04-14T21:49:26.006Z,9.03
2018-04-14T21:52:29.276Z,9.29
2018-04-14T21:55:32.533Z,9.30
2018-04-14T21:58:36.616Z,9.34
2018-04-14T22:01:39.859Z,9.50
2018-04-14T22:04:43.126Z,9.52
2018-04-14T22:07:46.373Z,9.52
2018-04-14T22:10:49.640Z,9.56
2018-04-14T22:13:53.687Z,9.46
2018-04-14T22:16:56.939Z,9.44
2018-04-14T22:20:00.186Z,9.21
2018-04-14T22:23:03.579Z,9.30
2018-04-14T22:26:06.848Z,9.33
2018-04-14T22:29:10.910Z,9.24
2018-04-14T22:32:14.158Z,9.22
2018-04-14T22:35:18.234Z,9.18
2018-04-14T22:38:21.502Z,9.12
2018-04-14T22:41:24.780Z,9.16
2018-04-14T22:44:28.797Z,9.17
2018-04-14T22:47:32.806Z,8.96
2018-04-14T22:50:36.098Z,8.85
2018-04-14T22:53:40.143Z,8.77
2018-04-14T22:56:43.382Z,8.69
2018-04-14T22:59:46.742Z,8.66
2018-04-14T23:02:49.997Z,8.67
2018-04-14T23:05:53.244Z,8.68
2018-04-14T23:08:56.503Z,8.63
2018-04-14T23:12:00.537Z,8.62
2018-04-14T23:15:03.789Z,8.59
2018-04-14T23:18:07.051Z,8.45
2018-04-14T23:21:10.352Z,8.43
2018-04-14T23:24:13.633Z,8.37
2018-04-14T23:27:16.887Z,8.30
2018-04-14T23:30:20.154Z,8.21
2018-04-14T23:33:23.405Z,8.12
2018-04-14T23:36:27.437Z,8.07
2018-04-14T23:39:30.678Z,8.12
2018-04-14T23:42:33.933Z,8.11
2018-04-14T23:45:37.178Z,8.06
2018-04-14T23:48:40.430Z,8.07
2018-04-14T23:51:43.688Z,8.03
2018-04-14T23:54:46.945Z,8.01
2018-04-14T23:57:50.191Z,7.92
